Weather at Wilderman Farm Airport

Public forecast

Using degrees Celsius for public forecast. Weather courtesy of forecast.io.

Closest aviation weather report (METAR) to Wilderman Farm Airport

Closest report is Calgary International Airport, 37.7 nm (69.7 km) NNW.

2024/05/30 07:00 (retrieved 19 minutes ago)

CYYC 300700Z 11004KT 080V190 15SM SCT089 BKN160 08/01 A2994 RMK AC3AC2 SLP151

Closest aviation forecast (TAF) to Wilderman Farm Airport

Closest forecast is Calgary International Airport, 37.7 nm (69.7 km) NNW.

2024/05/30 06:42 (retrieved 37 minutes ago)

TAF CYYC 300540Z 3006/3106 02010KT P6SM SCT140 BKN220 TEMPO 3006/3016 BKN070 BKN140 BECMG 3006/3008 29010KT FM301600 32012KT P6SM VCSH BKN080 FM301900 32018KT P6SM VCTS BKN060CB BKN080 TEMPO 3019/3102 P6SM -SHRA BKN070 FM310200 33012KT P6SM SCT070 BKN200 TEMPO 3102/3105 BKN070 FM310500 29010KT P6SM FEW070 SCT240 RMK NXT FCST BY 300900Z